Terminal Aerodrome Forecast
Issued by NWS

Home | Current Version | Previous Version | Text Only | Print | Product List | Glossary Off
Versions: 1 2 3 4 5 6 7 8 9 10 11 12 13

000
FTUS43 KTOP 262300
TAFMHK
TAF
KMHK 262333Z 2700/2724 23005KT P6SM BKN150
     FM270200 36008KT P6SM SCT150
     FM271400 01011KT P6SM SKC=

USA.gov is the U.S. government's official web portal to all federal, state and local government web resources and services.